createdAt,value
2018-04-22T00:01:29.188Z,91.10
2018-04-22T00:03:57.381Z,91.30
2018-04-22T00:06:25.553Z,91.40
2018-04-22T00:08:53.724Z,91.50
2018-04-22T00:11:21.985Z,91.50
2018-04-22T00:13:50.316Z,91.80
2018-04-22T00:16:18.473Z,91.80
2018-04-22T00:18:47.359Z,91.80
2018-04-22T00:21:15.552Z,91.50
2018-04-22T00:23:44.539Z,91.00
2018-04-22T00:26:13.420Z,90.90
2018-04-22T00:28:41.567Z,90.90
2018-04-22T00:31:09.679Z,91.60
2018-04-22T00:33:38.551Z,91.40
2018-04-22T00:36:07.650Z,91.40
2018-04-22T00:38:35.763Z,91.40
2018-04-22T00:41:03.874Z,91.80
2018-04-22T00:43:32.013Z,91.50
2018-04-22T00:46:00.120Z,91.60
2018-04-22T00:48:28.246Z,91.50
2018-04-22T00:50:56.387Z,91.60
2018-04-22T00:53:24.502Z,91.70
2018-04-22T00:55:52.637Z,91.80
2018-04-22T00:58:21.613Z,92.30
2018-04-22T01:00:49.905Z,92.30
2018-04-22T01:03:18.199Z,92.50
2018-04-22T01:05:46.347Z,92.70
2018-04-22T01:08:14.489Z,92.90
2018-04-22T01:10:42.587Z,93.00
2018-04-22T01:13:11.366Z,93.00
2018-04-22T01:15:39.519Z,93.10
2018-04-22T01:18:08.680Z,93.10
2018-04-22T01:20:37.547Z,93.20
2018-04-22T01:23:05.796Z,93.20
2018-04-22T01:25:34.077Z,93.30
2018-04-22T01:28:02.362Z,93.60
2018-04-22T01:30:31.287Z,93.60
2018-04-22T01:33:00.140Z,93.90
2018-04-22T01:35:28.296Z,93.90
2018-04-22T01:37:56.595Z,94.20
2018-04-22T01:40:24.887Z,94.20
2018-04-22T01:42:53.019Z,94.20
2018-04-22T01:45:21.341Z,94.30
2018-04-22T01:47:49.582Z,94.50
2018-04-22T01:50:17.754Z,94.20
2018-04-22T01:52:46.070Z,94.70
2018-04-22T01:55:14.986Z,94.50
2018-04-22T01:57:43.298Z,94.50
2018-04-22T02:00:11.428Z,94.60
2018-04-22T02:02:40.307Z,94.60
2018-04-22T02:05:09.332Z,94.90
2018-04-22T02:07:37.444Z,94.90
2018-04-22T02:10:07.065Z,95.30
2018-04-22T02:12:36.125Z,95.30
2018-04-22T02:15:04.230Z,95.30
2018-04-22T02:17:32.531Z,95.40
2018-04-22T02:20:01.713Z,95.60
2018-04-22T02:22:29.903Z,95.60
2018-04-22T02:24:58.774Z,95.60
2018-04-22T02:27:27.811Z,95.90
2018-04-22T02:29:56.623Z,95.70
2018-04-22T02:32:24.786Z,95.70
2018-04-22T02:34:52.939Z,95.80
2018-04-22T02:37:21.098Z,95.90
2018-04-22T02:39:50.050Z,96.00
2018-04-22T02:42:18.190Z,96.00
2018-04-22T02:44:46.296Z,96.20
2018-04-22T02:47:14.447Z,96.60
2018-04-22T02:49:42.617Z,96.40
2018-04-22T02:52:10.881Z,96.50
2018-04-22T02:54:39.490Z,96.60
2018-04-22T02:57:07.698Z,96.70
2018-04-22T02:59:36.566Z,96.90
2018-04-22T03:02:04.698Z,96.80
2018-04-22T03:04:32.999Z,96.70
2018-04-22T03:07:02.571Z,96.70
2018-04-22T03:09:30.763Z,96.60
2018-04-22T03:11:59.040Z,96.80
2018-04-22T03:14:27.275Z,96.80
2018-04-22T03:16:56.279Z,97.00
2018-04-22T03:19:25.208Z,97.00
2018-04-22T03:21:53.321Z,97.00
2018-04-22T03:24:22.199Z,97.00
2018-04-22T03:26:51.852Z,97.00
2018-04-22T03:29:20.080Z,97.00
2018-04-22T03:31:48.198Z,97.10
2018-04-22T03:34:16.378Z,97.10
2018-04-22T03:36:44.538Z,97.30
2018-04-22T03:39:12.734Z,97.30
2018-04-22T03:41:40.867Z,97.30
2018-04-22T03:44:09.956Z,97.40
2018-04-22T03:46:38.107Z,97.30
2018-04-22T03:49:06.434Z,97.40
2018-04-22T03:51:35.357Z,97.80
2018-04-22T03:54:03.529Z,97.50
2018-04-22T03:56:31.721Z,97.60
2018-04-22T03:58:59.845Z,97.60
2018-04-22T04:01:28.044Z,97.70
2018-04-22T04:03:56.375Z,97.80
2018-04-22T04:06:24.483Z,97.70
2018-04-22T04:08:52.587Z,97.80
2018-04-22T04:11:21.300Z,97.70
2018-04-22T04:13:49.895Z,97.70
2018-04-22T04:16:18.773Z,97.90
2018-04-22T04:18:59.600Z,97.80
2018-04-22T04:21:39.399Z,97.90
2018-04-22T04:24:31.948Z,98.50
2018-04-22T04:27:14.419Z,98.20
2018-04-22T04:29:42.592Z,98.10
2018-04-22T04:32:10.704Z,98.20
2018-04-22T04:34:39.590Z,98.10
2018-04-22T04:37:09.332Z,98.00
2018-04-22T04:39:37.447Z,98.00
2018-04-22T04:42:05.557Z,97.90
2018-04-22T04:44:34.878Z,97.80
2018-04-22T04:47:02.992Z,97.80
2018-04-22T04:49:31.109Z,97.60
2018-04-22T04:52:00.016Z,97.50
2018-04-22T04:54:28.874Z,97.40
2018-04-22T04:56:58.099Z,97.40
2018-04-22T04:59:26.977Z,97.30
2018-04-22T05:01:55.327Z,97.30
2018-04-22T05:04:23.456Z,97.30
2018-04-22T05:06:51.593Z,97.20
2018-04-22T05:09:20.599Z,97.20
2018-04-22T05:11:49.460Z,97.30
2018-04-22T05:14:17.667Z,97.30
2018-04-22T05:16:46.533Z,97.30
2018-04-22T05:19:16.132Z,97.00
2018-04-22T05:21:44.238Z,97.00
2018-04-22T05:24:12.345Z,97.00
2018-04-22T05:26:40.443Z,96.90
2018-04-22T05:29:08.575Z,96.80
2018-04-22T05:31:36.813Z,96.80
2018-04-22T05:34:04.961Z,96.60
2018-04-22T05:36:33.116Z,96.40
2018-04-22T05:39:01.210Z,96.40
2018-04-22T05:41:29.357Z,96.30
2018-04-22T05:43:57.649Z,96.20
2018-04-22T05:46:26.486Z,96.00
2018-04-22T05:48:55.361Z,96.10
2018-04-22T05:51:24.749Z,96.10
2018-04-22T05:53:53.994Z,96.00
2018-04-22T05:56:22.137Z,95.90
2018-04-22T05:58:51.061Z,95.70
2018-04-22T06:01:19.243Z,95.60
2018-04-22T06:03:47.398Z,95.10
2018-04-22T06:06:15.526Z,94.80
2018-04-22T06:08:44.569Z,94.20
2018-04-22T06:11:12.679Z,94.10
2018-04-22T06:13:40.924Z,94.00
2018-04-22T06:16:09.093Z,93.90
2018-04-22T06:18:37.345Z,94.00
2018-04-22T06:21:06.268Z,93.90
2018-04-22T06:23:34.489Z,93.90
2018-04-22T06:26:02.601Z,93.70
2018-04-22T06:28:30.711Z,93.60
2018-04-22T06:30:58.821Z,93.50
2018-04-22T06:33:30.764Z,93.20
2018-04-22T06:35:58.957Z,93.00
2018-04-22T06:38:27.260Z,92.90
2018-04-22T06:40:56.111Z,92.80
2018-04-22T06:43:24.241Z,92.80
2018-04-22T06:45:52.963Z,92.70
2018-04-22T06:48:21.067Z,92.60
2018-04-22T06:50:49.181Z,92.40
2018-04-22T06:53:17.371Z,92.30
2018-04-22T06:55:45.476Z,92.10
2018-04-22T06:58:15.309Z,91.50
2018-04-22T07:00:44.191Z,91.50
2018-04-22T07:03:13.065Z,91.40
2018-04-22T07:05:41.175Z,91.40
2018-04-22T07:08:09.390Z,91.40
2018-04-22T07:10:37.707Z,91.20
2018-04-22T07:13:07.024Z,90.90
2018-04-22T07:15:35.242Z,90.90
2018-04-22T07:18:03.374Z,90.70
2018-04-22T07:20:31.686Z,90.60
2018-04-22T07:23:01.467Z,90.30
2018-04-22T07:25:30.457Z,90.40
2018-04-22T07:27:59.042Z,90.40
2018-04-22T07:30:27.222Z,90.20
2018-04-22T07:32:55.576Z,90.00
2018-04-22T07:35:24.464Z,88.60
2018-04-22T07:37:53.348Z,88.00
2018-04-22T07:40:22.240Z,87.30
2018-04-22T07:42:51.127Z,86.60
2018-04-22T07:45:20.051Z,86.40
2018-04-22T07:47:48.167Z,86.40
2018-04-22T07:50:16.434Z,85.40
2018-04-22T07:52:44.572Z,85.00
2018-04-22T07:55:12.704Z,83.60
2018-04-22T07:57:41.600Z,81.20
2018-04-22T08:00:10.499Z,78.00
2018-04-22T08:02:39.474Z,76.40
2018-04-22T08:05:07.684Z,76.30
2018-04-22T08:07:35.805Z,76.30
2018-04-22T08:10:04.112Z,75.80
2018-04-22T08:12:32.505Z,75.20
2018-04-22T08:15:00.798Z,74.90
2018-04-22T08:17:28.961Z,74.00
2018-04-22T08:19:57.212Z,73.60
2018-04-22T08:22:25.427Z,73.60
2018-04-22T08:24:53.548Z,73.20
2018-04-22T08:27:21.841Z,73.30
2018-04-22T08:29:50.008Z,74.10
2018-04-22T08:32:18.311Z,73.80
2018-04-22T08:34:47.295Z,74.20
2018-04-22T08:37:16.174Z,75.10
2018-04-22T08:39:45.473Z,76.60
2018-04-22T08:42:13.775Z,75.80
2018-04-22T08:44:42.734Z,76.50
2018-04-22T08:47:10.857Z,76.50
2018-04-22T08:49:39.161Z,76.90
2018-04-22T08:52:07.285Z,77.80
2018-04-22T08:54:36.175Z,78.60
2018-04-22T08:57:05.254Z,79.00
2018-04-22T08:59:34.953Z,78.90
2018-04-22T09:02:03.096Z,78.00
2018-04-22T09:04:32.098Z,78.10
2018-04-22T09:07:00.231Z,78.10
2018-04-22T09:09:28.338Z,79.00
2018-04-22T09:11:56.564Z,79.10
2018-04-22T09:14:25.424Z,76.90
2018-04-22T09:16:53.573Z,76.80
2018-04-22T09:19:21.740Z,77.30
2018-04-22T09:21:49.880Z,76.90
2018-04-22T09:24:20.335Z,74.80
2018-04-22T09:26:48.459Z,74.80
2018-04-22T09:29:17.464Z,75.20
2018-04-22T09:31:46.295Z,74.20
2018-04-22T09:34:14.398Z,73.50
2018-04-22T09:36:43.153Z,73.10
2018-04-22T09:39:11.993Z,73.00
2018-04-22T09:41:41.015Z,72.00
2018-04-22T09:44:09.152Z,71.90
2018-04-22T09:46:38.775Z,70.00
2018-04-22T09:49:07.716Z,67.80
2018-04-22T09:51:36.596Z,67.80
2018-04-22T09:54:05.130Z,65.20
2018-04-22T09:56:34.032Z,61.70
2018-04-22T09:59:02.765Z,61.60
2018-04-22T10:01:36.703Z,61.80
2018-04-22T10:04:10.959Z,62.10
2018-04-22T10:06:39.239Z,60.60
2018-04-22T10:09:09.122Z,59.10
2018-04-22T10:11:38.199Z,58.40
2018-04-22T10:14:06.318Z,58.30
2018-04-22T10:16:34.489Z,58.10
2018-04-22T10:19:02.591Z,58.50
2018-04-22T10:21:30.737Z,58.90
2018-04-22T10:23:58.851Z,61.00
2018-04-22T10:26:27.221Z,61.70
2018-04-22T10:28:55.354Z,62.00
2018-04-22T10:31:24.221Z,62.80
2018-04-22T10:33:53.119Z,60.60
2018-04-22T10:36:21.323Z,60.50
2018-04-22T10:38:49.444Z,58.50
2018-04-22T10:41:17.552Z,59.70
2018-04-22T10:43:46.540Z,60.00
2018-04-22T10:46:14.820Z,59.90
2018-04-22T10:48:43.771Z,58.30
2018-04-22T10:51:11.966Z,58.30
2018-04-22T10:53:40.907Z,59.30
2018-04-22T10:56:09.932Z,59.20
2018-04-22T10:58:38.119Z,58.30
2018-04-22T11:01:06.382Z,58.40
2018-04-22T11:03:34.513Z,58.20
2018-04-22T11:06:02.617Z,58.30
2018-04-22T11:08:30.704Z,58.00
2018-04-22T11:10:58.793Z,57.40
2018-04-22T11:13:27.689Z,57.30
2018-04-22T11:15:56.570Z,57.00
2018-04-22T11:18:24.749Z,56.90
2018-04-22T11:20:53.646Z,56.70
2018-04-22T11:23:22.596Z,54.80
2018-04-22T11:25:50.806Z,54.80
2018-04-22T11:28:18.929Z,54.80
2018-04-22T11:30:47.048Z,54.40
2018-04-22T11:33:15.964Z,51.80
2018-04-22T11:35:44.111Z,51.80
2018-04-22T11:38:12.246Z,51.60
2018-04-22T11:40:40.345Z,50.70
2018-04-22T11:43:08.565Z,50.80
2018-04-22T11:45:36.678Z,50.20
2018-04-22T11:48:04.766Z,50.50
2018-04-22T11:50:32.927Z,51.00
2018-04-22T11:53:01.032Z,50.50
2018-04-22T11:55:29.995Z,50.30
2018-04-22T11:57:58.115Z,50.20
2018-04-22T12:00:26.976Z,50.70
2018-04-22T12:02:55.089Z,50.70
2018-04-22T12:05:23.225Z,50.90
2018-04-22T12:07:52.096Z,49.50
2018-04-22T12:10:20.185Z,49.40
2018-04-22T12:12:52.075Z,49.30
2018-04-22T12:15:20.930Z,49.40
2018-04-22T12:17:49.046Z,49.40
2018-04-22T12:20:17.157Z,49.30
2018-04-22T12:22:45.246Z,49.10
2018-04-22T12:25:13.342Z,48.30
2018-04-22T12:27:42.219Z,47.80
2018-04-22T12:30:11.094Z,48.10
2018-04-22T12:32:40.258Z,48.10
2018-04-22T12:35:09.210Z,47.70
2018-04-22T12:37:38.080Z,47.60
2018-04-22T12:40:06.279Z,47.50
2018-04-22T12:42:35.933Z,48.10
2018-04-22T12:45:04.049Z,48.10
2018-04-22T12:47:32.946Z,47.90
2018-04-22T12:50:02.693Z,47.10
2018-04-22T12:52:30.775Z,47.00
2018-04-22T12:54:58.960Z,47.90
2018-04-22T12:57:27.125Z,47.10
2018-04-22T12:59:56.149Z,46.50
2018-04-22T13:02:24.244Z,46.40
2018-04-22T13:04:52.462Z,47.10
2018-04-22T13:07:20.663Z,47.00
2018-04-22T13:09:48.948Z,47.30
2018-04-22T13:12:17.119Z,46.80
2018-04-22T13:14:45.220Z,47.00
2018-04-22T13:17:14.175Z,46.90
2018-04-22T13:19:42.323Z,47.00
2018-04-22T13:22:11.239Z,47.00
2018-04-22T13:24:39.390Z,47.00
2018-04-22T13:27:07.512Z,47.10
2018-04-22T13:29:35.724Z,47.10
2018-04-22T13:32:03.821Z,47.50
2018-04-22T13:34:31.933Z,46.80
2018-04-22T13:37:00.816Z,46.60
2018-04-22T13:39:29.931Z,45.90
2018-04-22T13:41:58.051Z,46.50
2018-04-22T13:44:26.217Z,44.30
2018-04-22T13:46:54.304Z,43.60
2018-04-22T13:49:22.481Z,43.70
2018-04-22T13:51:50.661Z,43.50
2018-04-22T13:54:18.773Z,41.90
2018-04-22T13:56:47.730Z,44.30
2018-04-22T13:59:15.937Z,44.30
2018-04-22T14:01:44.795Z,46.50
2018-04-22T14:04:13.782Z,46.40
2018-04-22T14:06:41.880Z,46.20
2018-04-22T14:09:10.913Z,48.30
2018-04-22T14:11:39.148Z,48.20
2018-04-22T14:14:08.032Z,47.00
2018-04-22T14:16:36.323Z,47.00
2018-04-22T14:19:05.342Z,47.40
2018-04-22T14:21:33.440Z,47.40
2018-04-22T14:24:02.430Z,49.60
2018-04-22T14:26:30.549Z,49.60
2018-04-22T14:28:59.436Z,50.80
2018-04-22T14:31:28.323Z,52.10
2018-04-22T14:33:56.600Z,51.50
2018-04-22T14:36:25.464Z,51.10
2018-04-22T14:38:53.667Z,51.10
2018-04-22T14:41:22.549Z,51.80
2018-04-22T14:44:02.768Z,51.70
2018-04-22T14:46:30.872Z,52.00
2018-04-22T14:49:04.993Z,52.10
2018-04-22T14:51:33.119Z,51.40
2018-04-22T14:54:01.242Z,50.70
2018-04-22T14:56:30.263Z,50.20
2018-04-22T14:58:58.393Z,50.00
2018-04-22T15:01:26.593Z,49.50
2018-04-22T15:03:55.666Z,47.00
2018-04-22T15:06:23.788Z,47.10
2018-04-22T15:08:52.187Z,47.90
2018-04-22T15:11:20.307Z,47.80
2018-04-22T15:13:49.255Z,48.30
2018-04-22T15:16:17.483Z,48.20
2018-04-22T15:18:46.364Z,47.40
2018-04-22T15:21:15.237Z,44.50
2018-04-22T15:23:44.851Z,45.90
2018-04-22T15:26:12.970Z,46.00
2018-04-22T15:28:41.062Z,44.00
2018-04-22T15:31:09.199Z,42.40
2018-04-22T15:33:38.081Z,42.20
2018-04-22T15:36:06.335Z,42.20
2018-04-22T15:38:34.481Z,42.10
2018-04-22T15:41:02.768Z,42.20
2018-04-22T15:43:30.881Z,40.20
2018-04-22T15:45:59.742Z,41.10
2018-04-22T15:48:28.025Z,41.10
2018-04-22T15:50:56.524Z,40.00
2018-04-22T15:53:25.421Z,40.90
2018-04-22T15:55:54.408Z,40.60
2018-04-22T15:58:23.299Z,41.30
2018-04-22T16:00:52.162Z,42.00
2018-04-22T16:03:20.464Z,42.00
2018-04-22T16:05:48.846Z,42.40
2018-04-22T16:08:16.919Z,42.30
2018-04-22T16:10:45.733Z,43.60
2018-04-22T16:13:13.836Z,43.50
2018-04-22T16:15:41.953Z,43.50
2018-04-22T16:18:11.020Z,42.90
2018-04-22T16:20:39.216Z,42.30
2018-04-22T16:23:08.089Z,43.10
2018-04-22T16:25:36.330Z,43.20
2018-04-22T16:28:04.640Z,44.00
2018-04-22T16:30:32.755Z,45.20
2018-04-22T16:33:00.917Z,45.50
2018-04-22T16:35:29.059Z,45.50
2018-04-22T16:37:57.425Z,45.60
2018-04-22T16:40:25.531Z,45.20
2018-04-22T16:42:53.890Z,44.90
2018-04-22T16:45:22.045Z,44.60
2018-04-22T16:47:51.982Z,44.30
2018-04-22T16:50:20.168Z,43.90
2018-04-22T16:52:49.087Z,42.60
2018-04-22T16:55:17.192Z,42.60
2018-04-22T16:57:45.328Z,42.30
2018-04-22T17:00:13.429Z,41.50
2018-04-22T17:02:41.549Z,41.20
2018-04-22T17:05:10.561Z,40.80
2018-04-22T17:07:38.731Z,40.80
2018-04-22T17:10:07.594Z,42.30
2018-04-22T17:12:35.697Z,42.30
2018-04-22T17:15:03.968Z,41.90
2018-04-22T17:17:32.968Z,42.10
2018-04-22T17:20:01.070Z,42.10
2018-04-22T17:22:30.204Z,42.60
2018-04-22T17:24:58.442Z,42.50
2018-04-22T17:27:26.677Z,42.80
2018-04-22T17:29:54.942Z,43.70
2018-04-22T17:32:23.051Z,44.60
2018-04-22T17:34:51.149Z,44.90
2018-04-22T17:37:19.336Z,45.10
2018-04-22T17:39:47.444Z,45.00
2018-04-22T17:42:16.361Z,44.70
2018-04-22T17:44:44.466Z,44.70
2018-04-22T17:47:12.798Z,45.10
2018-04-22T17:49:40.910Z,46.60
2018-04-22T17:52:09.324Z,47.10
2018-04-22T17:54:38.424Z,47.10
2018-04-22T17:57:06.674Z,47.10
2018-04-22T17:59:34.849Z,48.00
2018-04-22T18:02:04.458Z,48.30
2018-04-22T18:04:32.575Z,48.30
2018-04-22T18:07:00.698Z,48.30
2018-04-22T18:09:28.792Z,48.70
2018-04-22T18:11:57.125Z,49.10
2018-04-22T18:14:26.087Z,49.50
2018-04-22T18:16:54.791Z,49.50
2018-04-22T18:19:22.941Z,50.00
2018-04-22T18:21:51.052Z,50.20
2018-04-22T18:24:19.373Z,50.50
2018-04-22T18:26:48.797Z,51.00
2018-04-22T18:29:16.913Z,50.90
2018-04-22T18:31:45.049Z,51.50
2018-04-22T18:34:13.352Z,51.90
2018-04-22T18:36:41.521Z,52.50
2018-04-22T18:39:09.673Z,52.70
2018-04-22T18:41:37.775Z,53.20
2018-04-22T18:44:07.353Z,53.50
2018-04-22T18:46:35.506Z,53.80
2018-04-22T18:49:03.797Z,54.20
2018-04-22T18:51:32.032Z,54.50
2018-04-22T18:54:02.491Z,55.00
2018-04-22T18:56:33.529Z,56.00
2018-04-22T18:59:02.632Z,56.50
2018-04-22T19:01:31.555Z,56.90
2018-04-22T19:03:59.749Z,56.80
2018-04-22T19:06:28.077Z,57.70
2018-04-22T19:08:56.290Z,58.40
2018-04-22T19:11:24.584Z,58.80
2018-04-22T19:13:52.858Z,59.00
2018-04-22T19:16:20.966Z,59.70
2018-04-22T19:18:49.858Z,60.20
2018-04-22T19:21:18.765Z,60.60
2018-04-22T19:23:47.235Z,60.60
2018-04-22T19:26:17.372Z,61.20
2018-04-22T19:28:45.507Z,61.80
2018-04-22T19:31:14.374Z,63.40
2018-04-22T19:33:42.573Z,63.00
2018-04-22T19:36:10.687Z,63.70
2018-04-22T19:38:38.803Z,64.10
2018-04-22T19:41:07.244Z,64.30
2018-04-22T19:43:35.330Z,64.60
2018-04-22T19:46:03.563Z,64.90
2018-04-22T19:48:32.514Z,66.00
2018-04-22T19:51:00.626Z,66.00
2018-04-22T19:53:29.683Z,67.80
2018-04-22T19:55:57.993Z,67.80
2018-04-22T19:58:26.081Z,68.50
2018-04-22T20:00:54.360Z,69.10
2018-04-22T20:03:22.515Z,70.40
2018-04-22T20:05:51.384Z,72.70
2018-04-22T20:08:19.480Z,72.70
2018-04-22T20:10:47.656Z,74.50
2018-04-22T20:13:15.859Z,73.90
2018-04-22T20:15:44.222Z,74.30
2018-04-22T20:18:12.501Z,74.90
2018-04-22T20:20:40.754Z,75.30
2018-04-22T20:23:09.645Z,76.90
2018-04-22T20:25:38.544Z,76.80
2018-04-22T20:28:06.878Z,76.80
2018-04-22T20:30:34.994Z,76.90
2018-04-22T20:33:03.132Z,77.20
2018-04-22T20:35:32.038Z,77.90
2018-04-22T20:38:00.381Z,77.90
2018-04-22T20:40:28.603Z,77.60
2018-04-22T20:42:57.492Z,77.70
2018-04-22T20:45:26.361Z,77.70
2018-04-22T20:47:54.568Z,77.70
2018-04-22T20:50:22.730Z,77.90
2018-04-22T20:52:51.822Z,77.20
2018-04-22T20:55:20.728Z,77.10
2018-04-22T20:57:49.603Z,76.80
2018-04-22T21:00:18.489Z,76.40
2018-04-22T21:02:46.731Z,76.40
2018-04-22T21:05:14.938Z,76.20
2018-04-22T21:07:43.093Z,73.90
2018-04-22T21:10:11.204Z,72.70
2018-04-22T21:12:40.082Z,69.30
2018-04-22T21:15:09.063Z,68.70
2018-04-22T21:17:37.218Z,68.20
2018-04-22T21:20:05.381Z,67.10
2018-04-22T21:22:33.688Z,67.20
2018-04-22T21:25:01.850Z,67.10
2018-04-22T21:27:29.990Z,67.20
2018-04-22T21:29:58.169Z,67.50
2018-04-22T21:32:26.321Z,67.90
2018-04-22T21:34:55.204Z,66.90
2018-04-22T21:37:24.229Z,65.70
2018-04-22T21:39:52.374Z,65.70
2018-04-22T21:42:23.213Z,65.30
2018-04-22T21:44:51.933Z,65.40
2018-04-22T21:47:20.087Z,65.50
2018-04-22T21:49:48.210Z,65.70
2018-04-22T21:52:16.403Z,66.40
2018-04-22T21:54:45.400Z,67.60
2018-04-22T21:57:14.268Z,68.10
2018-04-22T21:59:42.385Z,68.10
2018-04-22T22:02:11.946Z,68.80
2018-04-22T22:04:40.050Z,69.50
2018-04-22T22:07:08.190Z,69.90
2018-04-22T22:09:36.309Z,70.70
2018-04-22T22:12:04.483Z,71.00
2018-04-22T22:14:32.615Z,71.40
2018-04-22T22:17:00.745Z,72.40
2018-04-22T22:19:28.857Z,73.00
2018-04-22T22:21:56.996Z,73.50
2018-04-22T22:24:25.263Z,73.60
2018-04-22T22:26:54.649Z,73.30
2018-04-22T22:29:23.507Z,73.20
2018-04-22T22:31:52.510Z,73.70
2018-04-22T22:34:21.382Z,73.30
2018-04-22T22:36:49.587Z,73.20
2018-04-22T22:39:18.456Z,73.50
2018-04-22T22:41:47.465Z,73.70
2018-04-22T22:44:16.330Z,73.80
2018-04-22T22:46:44.485Z,73.70
2018-04-22T22:49:12.589Z,73.90
2018-04-22T22:51:40.762Z,73.60
2018-04-22T22:54:08.916Z,73.60
2018-04-22T22:56:37.033Z,73.00
2018-04-22T22:59:05.148Z,73.20
2018-04-22T23:01:33.338Z,73.10
2018-04-22T23:04:02.126Z,73.30
2018-04-22T23:06:30.237Z,73.40
2018-04-22T23:08:58.413Z,73.60
2018-04-22T23:11:26.545Z,74.00
2018-04-22T23:13:54.647Z,74.50
2018-04-22T23:16:24.731Z,74.70
2018-04-22T23:18:52.993Z,74.70
2018-04-22T23:21:22.487Z,75.10
2018-04-22T23:23:50.623Z,75.50
2018-04-22T23:26:19.488Z,76.00
2018-04-22T23:28:47.741Z,76.00
2018-04-22T23:31:15.969Z,76.30
2018-04-22T23:33:44.196Z,76.40
2018-04-22T23:36:12.318Z,76.80
2018-04-22T23:38:40.471Z,77.00
2018-04-22T23:41:09.358Z,78.20
2018-04-22T23:43:37.453Z,77.40
2018-04-22T23:46:06.418Z,77.30
2018-04-22T23:48:35.327Z,77.10
2018-04-22T23:51:03.414Z,77.10
2018-04-22T23:53:31.546Z,77.30
2018-04-22T23:55:59.779Z,77.60
2018-04-22T23:58:28.017Z,78.90
